Hornick, IA (51026)

9:28 PM CDT on September 20, 2019 (GMT -0500)
Salix | | Change Station
Active Advisory: Flood Warning

Elev 1063 ft 42.30 °N, 96.19 °W | Updated 15 seconds ago

Clear
Clear
74.7 °F
Feels Like 75 °F
N
8.1
Wind Variable Wind from South
Gusts 12.5 mph

Today
High -- | Low -- °F
--% Chance of Precip.
Yesterday
High -- | Low -- °F
Precip. -- in
Pressure 29.85 in
Visibility 10.0 miles
Clouds Clear
Heat Index 75 °F
Dew Point 68 °F
Humidity 78%
Rainfall 0.00 in
Snow Depth Not available.
7:09 AM 7:25 PM
Waning Gibbous, 61% visible
METAR KSUX 210152Z 16011KT 10SM CLR 24/20 A2987 RMK AO2 SLP106 T02440200
Pressure 29.85 in
Visibility 10.0 miles
Clouds Clear
Heat Index 75 °F
Dew Point 68 °F
Humidity 78%
Rainfall 0.00 in
Snow Depth Not available.
7:09 AM 7:25 PM
Waning Gibbous, 61% visible
METAR KSUX 210152Z 16011KT 10SM CLR 24/20 A2987 RMK AO2 SLP106 T02440200

Get Your Daily Forecast Email!

Thanks for signing up!

Be on the lookout for a verification email in your inbox.

You'll start receiving severe weather alerts in your inbox..

×

10-Day Weather Forecast

Almanac

Astronomy

Sep. 20, 2019 Rise Set
Actual Time
Civil Twilight
Nautical Twilight
Astronomical Twilight
Moon
Length of Visible Light
Length of Day
Tomorrow will be .
, % of the Moon is Illuminated

Today's Extremes

State Highs State Lows

Community

WunderPhotos

Category 6

Welcome to Category 6. This is the collective home for Weather Underground's featured writeups by Dr. Jeff Masters (right), Bob Henson (left), Chris Burt, and other regular contributors.

Nearby

Air Quality

  Air Quality AQ Index Pollutant
Not available.

Snow Depth

Station Depth Elevation

Earthquake Activity

City Distance Mag. Time & Date
Minimum magnitude displayed is 2.5.

Coastal Water Temperatures

Place Temperature

Stations

Nearby Weather Stations

Station Location Temp. Windchill Dew Point Humidity Wind Precip. Elev Updated Type
                   

Watches & Warnings

Flood Warning
Issued: 10:31 AM CDT Sep. 20, 2019 – National Weather Service

The Flood Warning continues for
the Big Sioux River at Sioux City.
* Until Saturday evening.
* At 09 am Friday the stage was 32.24 feet.
* Minor flooding is occurring and minor flooding is forecast.
* Flood stage is 32.00 feet.
* Forecast... the river will continue to fall to below flood stage by
Friday September 20.
* At stages near 32.0 feet... agricultural land north of the leveed
area begins to flood.


Lat... Lon 4257 9651 4257 9647 4256 9647 4251 9647
          4250 9646 4250 9644 4248 9645 4249 9650
          4253 9652